Time;durP1;ratioP1;P1;durP2;ratioP2;P2;SDS_P1;SDS_P2;PMS_P1;PMS_P2;Temp;Humidity;BMP_temperature;BMP_pressure;BME280_temperature;BME280_humidity;BME280_pressure;Samples;Min_cycle;Max_cycle;Signal;HPM_P1;HPM_P2
2022/01/26 00:07:49;;;;;;;58.83;33.23;;;5.30;98.60;;;;;;5076678;28;20945;-70
2022/01/26 00:10:15;;;;;;;59.83;33.17;;;5.20;98.10;;;;;;5076594;28;20494;-70
2022/01/26 00:12:42;;;;;;;58.43;31.67;;;5.30;98.50;;;;;;5076642;28;20490;-70
2022/01/26 00:15:10;;;;;;;59.43;33.87;;;5.30;98.20;;;;;;5076491;28;20468;-70
2022/01/26 00:17:38;;;;;;;59.03;32.87;;;5.30;98.40;;;;;;5076502;28;20440;-70
2022/01/26 00:20:14;;;;;;;64.87;37.00;;;5.30;98.20;;;;;;5076454;28;20459;-70
2022/01/26 00:22:55;;;;;;;66.13;34.60;;;5.20;98.20;;;;;;5076464;28;20448;-70
2022/01/26 00:25:33;;;;;;;64.73;37.07;;;5.20;98.80;;;;;;5076335;28;20460;-70
2022/01/26 00:28:19;;;;;;;63.50;34.80;;;5.20;99.00;;;;;;5076330;28;20471;-70
2022/01/26 00:39:15;;;;;;;72.03;35.83;;;5.30;99.50;;;;;;4994927;28;20523;-70
2022/01/26 00:41:45;;;;;;;68.77;35.27;;;5.40;99.60;;;;;;5040608;28;20835;-70
2022/01/26 00:44:12;;;;;;;66.00;35.33;;;5.40;99.40;;;;;;5076104;28;20440;-70
2022/01/26 00:46:42;;;;;;;70.13;36.63;;;5.50;98.90;;;;;;5075975;28;20457;-70
2022/01/26 00:49:10;;;;;;;73.90;36.97;;;5.50;98.70;;;;;;5076888;28;20469;-70
2022/01/26 00:51:36;;;;;;;77.33;38.97;;;5.50;98.70;;;;;;5075991;28;20445;-70
2022/01/26 00:54:06;;;;;;;71.53;40.43;;;5.40;98.60;;;;;;5075628;28;20968;-70
2022/01/26 00:56:33;;;;;;;79.13;41.20;;;5.30;98.20;;;;;;5075789;28;20464;-71
2022/01/26 00:59:00;;;;;;;71.57;38.50;;;5.30;98.20;;;;;;5075901;28;20429;-70
2022/01/26 01:01:27;;;;;;;78.33;40.43;;;5.40;98.70;;;;;;5075831;28;20441;-70
2022/01/26 01:03:54;;;;;;;86.57;44.40;;;5.30;98.90;;;;;;5074590;28;20460;-70
2022/01/26 01:06:26;;;;;;;87.37;44.97;;;5.30;99.00;;;;;;5075313;28;20469;-70
2022/01/26 01:08:56;;;;;;;87.40;43.37;;;5.30;98.90;;;;;;5075330;28;20500;-69
2022/01/26 01:11:23;;;;;;;98.87;45.63;;;5.30;98.80;;;;;;5075614;28;20449;-70
2022/01/26 01:13:49;;;;;;;89.93;44.03;;;5.20;98.70;;;;;;5075583;28;20441;-70
2022/01/26 01:16:20;;;;;;;91.50;45.97;;;5.10;98.70;;;;;;5075405;28;20472;-70
2022/01/26 01:18:54;;;;;;;99.47;48.27;;;5.10;99.00;;;;;;5075548;28;20461;-70
2022/01/26 01:29:41;;;;;;;101.90;47.60;;;4.90;99.70;;;;;;5075286;28;20498;-70
2022/01/26 01:32:14;;;;;;;101.40;46.50;;;4.90;99.60;;;;;;5075268;28;20458;-70
2022/01/26 01:34:40;;;;;;;99.67;46.70;;;4.80;99.80;;;;;;5075192;28;20451;-70
2022/01/26 01:37:15;;;;;;;99.03;44.93;;;4.90;99.90;;;;;;5074693;28;20475;-70
2022/01/26 01:39:41;;;;;;;107.30;46.60;;;4.90;99.60;;;;;;5075116;28;20435;-70
2022/01/26 01:42:09;;;;;;;108.00;48.80;;;5.00;99.70;;;;;;5074983;28;20452;-70
2022/01/26 01:44:37;;;;;;;105.43;49.07;;;5.00;99.70;;;;;;5074653;28;20968;-70
2022/01/26 01:47:06;;;;;;;104.90;48.37;;;5.00;99.40;;;;;;5074814;28;20496;-70
2022/01/26 01:49:32;;;;;;;99.17;45.10;;;5.00;99.50;;;;;;5074459;28;21059;-70
2022/01/26 01:52:02;;;;;;;105.37;46.67;;;4.90;99.10;;;;;;5074476;28;20977;-70
2022/01/26 01:54:31;;;;;;;114.07;50.73;;;4.80;98.90;;;;;;5074782;28;20433;-70
2022/01/26 01:56:59;;;;;;;105.23;47.17;;;4.80;99.20;;;;;;5074628;28;20468;-70
2022/01/26 01:59:28;;;;;;;105.50;48.20;;;4.80;99.90;;;;;;5074613;28;20468;-70
2022/01/26 02:01:55;;;;;;;119.70;52.97;;;4.90;99.90;;;;;;5074391;28;20456;-70
2022/01/26 02:04:22;;;;;;;127.60;52.27;;;4.90;99.90;;;;;;5074238;28;20452;-70
2022/01/26 02:06:49;;;;;;;123.33;52.30;;;5.00;99.90;;;;;;5074441;28;20467;-70
2022/01/26 02:09:16;;;;;;;118.00;51.90;;;5.00;99.90;;;;;;5074378;28;20530;-70
2022/01/26 02:11:49;;;;;;;112.10;52.57;;;5.00;99.90;;;;;;5074048;28;20930;-70
2022/01/26 02:14:23;;;;;;;110.50;50.37;;;5.10;99.90;;;;;;5074306;28;20540;-70
2022/01/26 02:16:58;;;;;;;108.63;48.87;;;5.10;99.80;;;;;;5073434;28;20477;-70
2022/01/26 02:50:33;;;;;;;111.00;51.37;;;5.20;99.90;;;;;;5073535;28;20871;-70
2022/01/26 02:53:23;;;;;;;112.73;48.87;;;5.20;99.60;;;;;;5073738;28;20818;-70
2022/01/26 02:55:54;;;;;;;110.63;47.50;;;5.20;99.10;;;;;;5073650;28;20465;-70
2022/01/26 02:58:50;;;;;;;106.50;46.67;;;5.20;98.80;;;;;;5073693;28;20432;-70
2022/01/26 03:01:37;;;;;;;107.33;49.03;;;5.20;98.50;;;;;;5073647;28;20432;-70
2022/01/26 03:04:11;;;;;;;105.60;44.70;;;5.20;98.50;;;;;;5073340;28;20861;-70
2022/01/26 03:06:44;;;;;;;110.77;47.27;;;5.20;99.00;;;;;;5073543;28;20893;-70
2022/01/26 03:09:15;;;;;;;105.40;46.47;;;5.20;98.80;;;;;;5073509;28;20465;-70
2022/01/26 03:11:45;;;;;;;98.73;44.73;;;5.20;98.70;;;;;;5073565;28;20436;-70
2022/01/26 03:14:22;;;;;;;95.00;46.43;;;5.20;98.70;;;;;;5073226;28;20454;-70
2022/01/26 03:16:55;;;;;;;105.10;45.93;;;5.20;98.50;;;;;;5073390;28;20508;-70
2022/01/26 03:19:26;;;;;;;96.00;44.00;;;5.10;98.60;;;;;;5073478;28;20436;-70
2022/01/26 03:22:16;;;;;;;95.17;44.53;;;5.10;98.60;;;;;;5073424;28;20524;-70
2022/01/26 03:30:30;;;;;;;93.27;43.70;;;5.00;98.90;;;;;;5073358;28;20965;-70
2022/01/26 03:33:11;;;;;;;91.93;44.50;;;5.00;98.90;;;;;;5073317;28;20433;-70
2022/01/26 03:35:46;;;;;;;104.67;44.97;;;5.10;98.90;;;;;;5073263;28;20464;-70
2022/01/26 03:38:21;;;;;;;114.50;49.30;;;5.20;99.50;;;;;;5073246;28;20432;-70
2022/01/26 03:40:57;;;;;;;112.23;47.70;;;5.20;99.50;;;;;;5072991;28;20921;-70
2022/01/26 03:43:25;;;;;;;93.63;44.00;;;5.30;99.50;;;;;;5073255;28;20441;-70
2022/01/26 03:45:52;;;;;;;88.50;44.00;;;5.30;99.20;;;;;;5073087;28;20471;-70
2022/01/26 03:48:19;;;;;;;101.83;47.03;;;5.30;98.10;;;;;;5073120;28;20441;-70
2022/01/26 03:50:45;;;;;;;90.90;43.97;;;5.30;97.80;;;;;;5073105;28;20452;-70
2022/01/26 03:53:12;;;;;;;100.63;47.70;;;5.20;98.00;;;;;;5073073;28;20452;-70
2022/01/26 03:55:39;;;;;;;101.93;45.57;;;5.20;98.20;;;;;;5073003;28;20468;-70
2022/01/26 03:58:06;;;;;;;109.60;48.17;;;5.10;98.20;;;;;;5073039;28;20552;-70
2022/01/26 04:00:34;;;;;;;104.43;47.70;;;5.00;98.60;;;;;;5073028;28;20494;-70
2022/01/26 04:03:01;;;;;;;101.80;46.17;;;4.90;99.20;;;;;;5072785;28;20460;-70
2022/01/26 04:05:28;;;;;;;102.80;45.80;;;5.00;99.10;;;;;;5072880;28;20469;-70
2022/01/26 04:08:00;;;;;;;103.93;46.13;;;4.80;99.20;;;;;;5073436;28;20480;-70
2022/01/26 04:10:37;;;;;;;93.17;42.77;;;4.80;99.80;;;;;;5072868;28;20465;-70
2022/01/26 04:13:04;;;;;;;91.53;42.87;;;4.80;99.70;;;;;;5072968;28;20436;-70
2022/01/26 04:15:34;;;;;;;93.83;42.43;;;4.70;99.90;;;;;;5072781;28;20533;-70
2022/01/26 04:18:06;;;;;;;93.63;43.53;;;4.70;99.90;;;;;;5072890;28;20437;-70
2022/01/26 04:20:38;;;;;;;98.83;40.13;;;4.60;99.90;;;;;;5072572;28;20903;-70
2022/01/26 04:23:11;;;;;;;105.93;45.67;;;4.60;99.90;;;;;;5072834;28;20467;-70
2022/01/26 04:25:40;;;;;;;84.43;38.93;;;4.50;99.90;;;;;;5073163;28;20867;-70
2022/01/26 04:28:11;;;;;;;98.80;43.20;;;4.50;99.90;;;;;;5073542;28;20547;-70
2022/01/26 04:30:38;;;;;;;98.40;39.40;;;4.50;99.90;;;;;;5072795;28;20472;-70
2022/01/26 04:33:07;;;;;;;97.17;40.80;;;4.50;99.90;;;;;;5073051;28;20444;-70
2022/01/26 04:35:35;;;;;;;91.90;41.77;;;4.60;99.70;;;;;;5072644;28;20551;-70
2022/01/26 04:38:15;;;;;;;104.60;42.87;;;4.60;99.90;;;;;;5072369;28;20451;-70
2022/01/26 04:40:50;;;;;;;94.17;41.63;;;4.60;99.90;;;;;;5076241;28;20428;-70
2022/01/26 04:43:21;;;;;;;99.40;43.37;;;4.60;99.90;;;;;;5076211;28;20523;-70
2022/01/26 04:45:48;;;;;;;90.27;40.00;;;4.50;99.90;;;;;;5076437;28;20507;-70
2022/01/26 04:48:16;;;;;;;99.63;41.20;;;4.50;99.90;;;;;;5075846;28;20957;-69
2022/01/26 04:50:43;;;;;;;97.87;42.60;;;4.50;99.90;;;;;;5076023;28;20484;-69
2022/01/26 04:53:09;;;;;;;108.63;43.60;;;4.50;99.90;;;;;;5075989;28;20451;-69
2022/01/26 04:55:36;;;;;;;86.90;40.37;;;4.50;99.90;;;;;;5075574;28;21020;-69
2022/01/26 04:58:03;;;;;;;102.97;42.40;;;4.50;99.90;;;;;;5075899;28;20455;-69
2022/01/26 05:00:30;;;;;;;94.77;39.90;;;4.40;99.90;;;;;;5075839;28;20842;-69
2022/01/26 05:02:57;;;;;;;94.87;42.07;;;4.50;99.90;;;;;;5076244;28;20453;-69
2022/01/26 05:05:25;;;;;;;98.40;39.60;;;4.50;99.90;;;;;;5075708;28;20471;-70
2022/01/26 05:07:52;;;;;;;94.97;41.30;;;4.40;99.90;;;;;;5075701;28;20498;-69
2022/01/26 05:10:18;;;;;;;89.87;37.67;;;4.50;99.90;;;;;;5075537;28;20477;-69
2022/01/26 05:12:45;;;;;;;96.40;42.33;;;4.50;99.90;;;;;;5075655;28;20451;-69
2022/01/26 05:15:12;;;;;;;107.80;44.37;;;4.40;99.90;;;;;;5075473;28;20824;-70
2022/01/26 05:17:40;;;;;;;99.87;42.13;;;4.30;99.90;;;;;;5075514;28;20455;-69
2022/01/26 05:20:09;;;;;;;100.90;43.00;;;4.30;99.90;;;;;;5075189;28;20934;-69
2022/01/26 05:22:39;;;;;;;107.40;43.90;;;4.30;99.90;;;;;;5075162;28;20857;-69
2022/01/26 05:25:06;;;;;;;97.23;42.03;;;4.30;99.90;;;;;;5075130;28;20482;-70
2022/01/26 05:27:33;;;;;;;109.87;44.03;;;4.40;99.90;;;;;;5075320;28;20448;-69
2022/01/26 05:29:59;;;;;;;102.10;44.67;;;4.40;99.90;;;;;;5075186;28;20480;-70
2022/01/26 05:32:26;;;;;;;115.00;44.27;;;4.50;99.90;;;;;;5075336;28;20448;-69
2022/01/26 05:34:53;;;;;;;113.90;47.63;;;4.50;99.90;;;;;;5074826;28;20444;-69
2022/01/26 05:37:20;;;;;;;120.40;46.30;;;4.60;99.90;;;;;;5075215;28;20424;-69
2022/01/26 05:39:48;;;;;;;120.27;48.90;;;4.50;99.90;;;;;;5075134;28;20436;-69
2022/01/26 05:42:17;;;;;;;127.50;50.90;;;4.60;99.90;;;;;;5075617;28;20450;-69
2022/01/26 05:44:44;;;;;;;115.63;49.90;;;4.50;99.90;;;;;;5075077;28;20476;-69
2022/01/26 05:47:16;;;;;;;115.83;46.43;;;4.50;99.90;;;;;;5074921;28;20465;-69
2022/01/26 05:49:43;;;;;;;114.70;49.10;;;4.50;99.90;;;;;;5074630;28;20465;-69
2022/01/26 05:52:10;;;;;;;114.53;46.50;;;4.50;99.90;;;;;;5074969;28;20448;-69
2022/01/26 05:54:37;;;;;;;110.07;46.60;;;4.50;99.90;;;;;;5074961;28;20455;-69
2022/01/26 05:57:05;;;;;;;111.00;46.17;;;4.50;99.90;;;;;;5074698;28;20476;-69
2022/01/26 05:59:32;;;;;;;124.73;46.47;;;4.50;99.90;;;;;;5074690;28;20458;-70
2022/01/26 06:01:59;;;;;;;109.43;43.87;;;4.50;99.90;;;;;;5074643;28;20459;-69
2022/01/26 06:04:27;;;;;;;119.90;46.77;;;4.40;99.90;;;;;;5074266;28;20487;-69
2022/01/26 06:06:54;;;;;;;121.50;46.97;;;4.40;99.90;;;;;;5074469;28;20464;-69
2022/01/26 06:09:21;;;;;;;97.37;41.20;;;4.40;99.90;;;;;;5074401;28;20483;-69
2022/01/26 06:11:48;;;;;;;113.40;46.20;;;4.40;99.90;;;;;;5074130;28;20984;-69
2022/01/26 06:14:16;;;;;;;121.93;46.30;;;4.40;99.90;;;;;;5074389;28;20452;-69
2022/01/26 06:16:43;;;;;;;109.60;45.93;;;4.30;99.90;;;;;;5074295;28;20468;-69
2022/01/26 06:19:09;;;;;;;103.17;43.07;;;4.30;99.90;;;;;;5074295;28;20471;-69
2022/01/26 06:21:36;;;;;;;107.90;43.93;;;4.20;99.90;;;;;;5074251;28;20505;-69
2022/01/26 06:24:03;;;;;;;110.47;43.10;;;4.30;99.90;;;;;;5074027;28;20433;-69
2022/01/26 06:26:30;;;;;;;114.17;45.43;;;4.30;99.90;;;;;;5074117;28;20465;-69
2022/01/26 06:28:57;;;;;;;117.17;44.10;;;4.30;99.90;;;;;;5074035;28;20445;-69
2022/01/26 06:31:27;;;;;;;123.87;46.97;;;4.30;99.90;;;;;;5074012;28;20472;-69
2022/01/26 06:33:54;;;;;;;115.23;45.13;;;4.40;99.90;;;;;;5074078;28;20533;-69
2022/01/26 06:36:21;;;;;;;121.40;45.00;;;4.30;99.90;;;;;;5073951;28;20471;-69
2022/01/26 06:38:49;;;;;;;112.47;44.00;;;4.30;99.90;;;;;;5073605;28;20453;-69
2022/01/26 06:41:23;;;;;;;119.87;44.30;;;4.30;99.90;;;;;;5073918;28;20528;-69
2022/01/26 06:43:54;;;;;;;117.70;45.87;;;4.30;99.90;;;;;;5073895;28;20425;-71
2022/01/26 06:46:26;;;;;;;126.07;45.13;;;4.30;99.90;;;;;;5073829;28;20483;-69
2022/01/26 06:51:38;;;;;;;135.50;49.07;;;4.20;99.90;;;;;;5073656;28;20420;-69
2022/01/26 06:54:04;;;;;;;134.17;49.47;;;4.20;99.90;;;;;;5073676;28;20444;-69
2022/01/26 06:56:31;;;;;;;114.73;46.63;;;4.20;99.90;;;;;;5073685;28;20453;-69
2022/01/26 06:58:58;;;;;;;119.07;45.77;;;4.20;99.90;;;;;;5073607;28;20445;-70
2022/01/26 07:01:24;;;;;;;122.80;46.37;;;4.20;99.90;;;;;;5073008;28;20437;-69
2022/01/26 07:03:51;;;;;;;132.27;48.80;;;4.20;99.90;;;;;;5073168;28;20466;-69
2022/01/26 07:06:19;;;;;;;123.43;47.20;;;4.30;99.90;;;;;;5073197;28;20464;-69
2022/01/26 07:08:46;;;;;;;122.73;46.57;;;4.20;99.90;;;;;;5073595;28;20421;-70
2022/01/26 07:11:13;;;;;;;119.20;45.40;;;4.30;99.90;;;;;;5073711;28;21061;-69
2022/01/26 07:13:41;;;;;;;121.23;46.67;;;4.40;99.90;;;;;;5073477;28;20444;-69
2022/01/26 07:21:37;;;;;;;113.33;44.70;;;4.40;99.90;;;;;;5073537;28;20395;-69
2022/01/26 07:24:04;;;;;;;121.90;48.10;;;4.40;99.90;;;;;;5073086;28;20445;-70
2022/01/26 07:26:31;;;;;;;113.30;44.30;;;4.50;99.90;;;;;;5073295;28;20468;-70
2022/01/26 07:29:00;;;;;;;127.93;48.30;;;4.60;99.90;;;;;;5073371;28;20440;-69
2022/01/26 07:31:26;;;;;;;127.47;47.77;;;4.70;99.90;;;;;;5073370;28;20476;-69
2022/01/26 07:33:55;;;;;;;101.67;44.33;;;4.70;99.90;;;;;;5073292;28;20448;-70
2022/01/26 07:36:23;;;;;;;114.93;46.97;;;4.80;99.90;;;;;;5072893;28;20475;-70
2022/01/26 07:38:54;;;;;;;123.60;47.70;;;4.70;99.90;;;;;;5073273;28;20773;-70
2022/01/26 07:41:20;;;;;;;129.27;47.73;;;4.80;99.90;;;;;;5073267;28;20459;-70
2022/01/26 07:43:48;;;;;;;127.20;49.17;;;4.80;99.90;;;;;;5073161;28;20463;-70
2022/01/26 07:46:17;;;;;;;129.13;46.87;;;4.80;99.90;;;;;;5073147;28;20483;-70
2022/01/26 07:48:43;;;;;;;117.13;45.53;;;4.80;99.90;;;;;;5073135;28;20445;-70
2022/01/26 07:51:10;;;;;;;128.03;49.43;;;4.90;99.90;;;;;;5073046;28;20823;-70
2022/01/26 07:53:37;;;;;;;129.13;49.63;;;4.80;99.90;;;;;;5073119;28;20428;-70
2022/01/26 07:56:05;;;;;;;125.80;46.43;;;4.80;99.90;;;;;;5073025;28;20465;-70
2022/01/26 07:58:32;;;;;;;122.40;47.70;;;4.80;99.90;;;;;;5073042;28;20448;-70
2022/01/26 08:00:59;;;;;;;131.60;49.63;;;4.80;99.90;;;;;;5072690;28;20811;-70
2022/01/26 08:03:32;;;;;;;126.83;50.67;;;4.70;99.90;;;;;;5072604;28;20456;-70
2022/01/26 08:05:59;;;;;;;122.00;47.13;;;4.70;99.90;;;;;;5072954;28;20473;-70
2022/01/26 08:08:26;;;;;;;121.27;46.63;;;4.70;99.90;;;;;;5072974;28;20447;-70
2022/01/26 08:10:52;;;;;;;121.30;45.53;;;4.80;99.90;;;;;;5072861;28;20872;-70
2022/01/26 08:13:20;;;;;;;119.20;47.93;;;4.70;99.90;;;;;;5074546;28;20441;-70
2022/01/26 08:15:47;;;;;;;116.70;46.90;;;4.70;99.90;;;;;;5076659;28;20460;-70
2022/01/26 08:18:14;;;;;;;113.17;44.40;;;4.80;99.90;;;;;;5076659;28;20449;-70
2022/01/26 08:20:41;;;;;;;111.80;45.40;;;4.90;99.90;;;;;;5076642;28;20444;-70
2022/01/26 08:23:07;;;;;;;94.10;41.23;;;4.90;99.90;;;;;;5076583;28;20436;-70
2022/01/26 08:25:34;;;;;;;109.77;43.57;;;4.90;99.90;;;;;;5076489;28;20475;-70
2022/01/26 08:28:07;;;;;;;101.07;43.40;;;5.00;99.90;;;;;;5076578;28;20437;-70
2022/01/26 08:30:38;;;;;;;117.60;43.70;;;5.00;99.90;;;;;;5076462;28;20460;-70
2022/01/26 08:33:05;;;;;;;108.03;42.67;;;4.90;99.90;;;;;;5076443;28;20451;-70
2022/01/26 08:35:32;;;;;;;120.20;44.27;;;4.80;99.90;;;;;;5076325;28;20470;-70
2022/01/26 08:37:59;;;;;;;125.00;43.40;;;4.80;99.90;;;;;;5076312;28;20829;-69
2022/01/26 08:40:26;;;;;;;127.27;46.90;;;4.70;99.90;;;;;;5076323;28;20448;-70
2022/01/26 08:42:53;;;;;;;131.20;49.03;;;4.60;99.90;;;;;;5076246;28;20967;-70
2022/01/26 08:45:19;;;;;;;126.63;45.53;;;4.50;99.90;;;;;;5075776;28;20522;-70
2022/01/26 08:47:49;;;;;;;138.97;49.80;;;4.40;99.90;;;;;;5076104;28;20449;-73
2022/01/26 08:50:17;;;;;;;139.00;48.57;;;4.30;99.90;;;;;;5076250;28;20480;-73
2022/01/26 08:52:44;;;;;;;133.07;46.43;;;4.30;99.90;;;;;;5075679;28;20436;-73
2022/01/26 08:55:11;;;;;;;133.40;48.10;;;4.20;99.90;;;;;;5075871;28;20432;-73
2022/01/26 08:57:37;;;;;;;136.73;45.87;;;4.20;99.90;;;;;;5075932;28;20527;-73
2022/01/26 09:00:40;;;;;;;134.27;47.97;;;4.20;99.90;;;;;;5075881;28;20444;-73
2022/01/26 09:03:48;;;;;;;126.40;47.40;;;4.20;99.90;;;;;;5075612;28;20456;-73
2022/01/26 09:06:24;;;;;;;124.83;44.67;;;4.30;99.90;;;;;;5075451;28;20974;-73
2022/01/26 09:09:01;;;;;;;119.37;44.97;;;4.30;99.90;;;;;;5075740;28;20798;-74
2022/01/26 09:11:47;;;;;;;142.77;48.47;;;4.30;99.90;;;;;;5075661;28;20634;-74
2022/01/26 09:14:50;;;;;;;132.83;49.33;;;4.30;99.90;;;;;;5075659;28;20432;-74
2022/01/26 09:17:27;;;;;;;140.83;49.33;;;4.20;99.90;;;;;;5075173;28;20895;-74
2022/01/26 09:20:04;;;;;;;134.07;47.13;;;4.20;99.90;;;;;;5073408;28;20448;-73
2022/01/26 09:22:50;;;;;;;122.70;45.90;;;4.30;99.90;;;;;;5075156;28;20425;-73
2022/01/26 09:25:17;;;;;;;139.90;47.63;;;4.20;99.90;;;;;;5074714;28;20464;-73
2022/01/26 09:27:43;;;;;;;126.37;46.30;;;4.20;99.90;;;;;;5075102;28;20498;-73
2022/01/26 09:30:11;;;;;;;135.27;49.13;;;4.20;99.90;;;;;;5075208;28;20441;-73
2022/01/26 09:32:38;;;;;;;142.73;46.20;;;4.20;99.90;;;;;;5075246;28;20495;-73
2022/01/26 09:35:08;;;;;;;154.13;48.00;;;4.20;99.90;;;;;;5075228;28;20444;-74
2022/01/26 09:37:35;;;;;;;133.73;46.20;;;4.20;99.90;;;;;;5075514;28;20410;-73
2022/01/26 09:40:02;;;;;;;142.03;47.53;;;4.20;99.90;;;;;;5075170;28;20432;-73
2022/01/26 09:42:29;;;;;;;145.60;47.13;;;4.20;99.90;;;;;;5075042;28;20440;-73
2022/01/26 09:44:56;;;;;;;140.97;48.47;;;4.20;99.90;;;;;;5074612;28;20841;-72
2022/01/26 09:47:25;;;;;;;138.97;49.70;;;4.10;99.90;;;;;;5074963;28;20804;-72
2022/01/26 09:49:52;;;;;;;137.90;46.97;;;4.20;99.90;;;;;;5074622;28;20464;-72
2022/01/26 09:52:27;;;;;;;144.40;47.30;;;4.20;99.90;;;;;;5074796;28;20480;-72
2022/01/26 09:54:57;;;;;;;157.70;50.53;;;4.20;99.90;;;;;;5074495;28;20895;-72
2022/01/26 09:57:24;;;;;;;131.27;45.50;;;4.20;99.90;;;;;;5074821;28;20432;-72
2022/01/26 09:59:51;;;;;;;145.93;49.87;;;4.30;99.90;;;;;;5074709;28;20468;-73
2022/01/26 10:02:22;;;;;;;144.30;48.93;;;4.30;99.90;;;;;;5074566;28;20851;-72
2022/01/26 10:04:56;;;;;;;133.77;43.47;;;4.20;99.90;;;;;;5074640;28;20458;-73
2022/01/26 10:07:28;;;;;;;152.53;50.10;;;4.10;99.90;;;;;;5074681;28;20516;-73
2022/01/26 10:10:07;;;;;;;152.40;47.60;;;4.10;99.90;;;;;;5074667;28;20475;-72
2022/01/26 10:15:32;;;;;;;141.70;46.47;;;4.20;99.90;;;;;;5074427;28;20436;-72
2022/01/26 10:18:07;;;;;;;144.90;48.13;;;4.10;99.90;;;;;;5074472;28;20519;-73
2022/01/26 10:20:45;;;;;;;138.83;46.80;;;4.20;99.90;;;;;;5074414;28;20425;-72
2022/01/26 10:23:17;;;;;;;138.70;48.93;;;4.20;99.90;;;;;;5074313;28;20417;-73
2022/01/26 10:25:47;;;;;;;133.50;47.17;;;4.30;99.90;;;;;;5074246;28;20464;-72
2022/01/26 10:28:16;;;;;;;133.83;48.20;;;4.20;99.90;;;;;;5073950;28;20422;-73
2022/01/26 10:30:45;;;;;;;134.80;45.47;;;4.10;99.90;;;;;;5073870;28;20849;-73
2022/01/26 10:33:13;;;;;;;138.87;46.93;;;4.20;99.90;;;;;;5074113;28;20444;-72
2022/01/26 10:35:39;;;;;;;139.30;45.37;;;4.20;99.90;;;;;;5073670;28;20469;-72
2022/01/26 10:38:06;;;;;;;129.37;44.70;;;4.20;99.90;;;;;;5073448;28;20455;-73
2022/01/26 10:40:37;;;;;;;147.93;46.93;;;4.20;99.90;;;;;;5074039;28;20942;-73
2022/01/26 10:43:08;;;;;;;137.77;44.60;;;4.20;99.90;;;;;;5074053;28;20433;-73
2022/01/26 10:45:51;;;;;;;125.23;42.83;;;4.40;99.90;;;;;;5073858;28;20521;-73
2022/01/26 10:48:26;;;;;;;128.43;43.73;;;4.30;99.90;;;;;;5073888;28;20429;-73
2022/01/26 10:51:33;;;;;;;128.93;44.77;;;4.40;99.90;;;;;;5073471;28;20459;-73
2022/01/26 10:54:12;;;;;;;127.43;41.93;;;4.40;99.90;;;;;;5073783;28;20876;-73
2022/01/26 10:56:40;;;;;;;123.20;40.00;;;4.30;99.90;;;;;;5073737;28;20521;-73
2022/01/26 10:59:07;;;;;;;121.33;40.60;;;4.30;99.90;;;;;;5073663;28;20445;-73
2022/01/26 11:01:36;;;;;;;124.07;40.77;;;4.30;99.90;;;;;;5073675;28;20480;-73
2022/01/26 11:04:04;;;;;;;125.17;41.50;;;4.30;99.90;;;;;;5073285;28;20814;-73
2022/01/26 11:06:31;;;;;;;124.63;39.27;;;4.30;99.90;;;;;;5073553;28;20470;-73
2022/01/26 11:09:02;;;;;;;110.07;37.43;;;4.30;99.90;;;;;;5073588;28;20452;-73
2022/01/26 11:11:28;;;;;;;114.60;37.77;;;4.30;99.90;;;;;;5073443;28;20503;-73
2022/01/26 11:13:56;;;;;;;111.60;37.13;;;4.30;99.90;;;;;;5073649;28;20444;-72
2022/01/26 11:16:23;;;;;;;107.70;36.50;;;4.30;99.90;;;;;;5073479;28;20467;-73
2022/01/26 11:18:52;;;;;;;121.27;36.77;;;4.30;99.90;;;;;;5073235;28;20456;-73
2022/01/26 11:21:34;;;;;;;93.23;34.10;;;4.40;99.90;;;;;;5073609;28;20451;-72
2022/01/26 11:24:12;;;;;;;106.20;34.83;;;4.30;99.90;;;;;;5073025;28;20502;-74
2022/01/26 11:26:45;;;;;;;94.40;34.27;;;4.30;99.90;;;;;;5073248;28;20559;-73
2022/01/26 11:29:43;;;;;;;112.37;35.03;;;4.30;99.90;;;;;;5073334;28;20539;-74
2022/01/26 11:32:35;;;;;;;98.90;35.10;;;4.30;99.90;;;;;;5072235;28;20998;-74
2022/01/26 11:35:21;;;;;;;90.47;32.53;;;4.30;99.90;;;;;;5070645;28;20440;-73
2022/01/26 11:38:16;;;;;;;93.77;33.13;;;4.30;99.90;;;;;;5073049;28;20976;-73
2022/01/26 11:46:26;;;;;;;90.50;33.60;;;4.30;99.90;;;;;;5073274;28;20567;-73
2022/01/26 11:49:01;;;;;;;83.80;29.90;;;4.30;99.90;;;;;;5075731;28;20913;-73
2022/01/26 11:51:39;;;;;;;93.60;35.67;;;4.40;99.90;;;;;;5077576;28;20514;-73
2022/01/26 11:54:11;;;;;;;86.33;30.77;;;4.40;99.90;;;;;;5077224;28;20429;-73
2022/01/26 11:56:38;;;;;;;90.70;35.47;;;4.50;99.90;;;;;;5076883;28;20969;-73
2022/01/26 11:59:04;;;;;;;82.50;31.23;;;4.60;99.90;;;;;;5076835;28;20444;-73
2022/01/26 12:01:41;;;;;;;88.33;33.63;;;4.50;99.90;;;;;;5076998;28;20440;-73
2022/01/26 12:04:15;;;;;;;88.90;32.20;;;4.50;99.90;;;;;;5076752;28;20456;-73
2022/01/26 12:06:48;;;;;;;91.00;30.47;;;4.60;99.90;;;;;;5076607;28;20891;-73
2022/01/26 12:09:16;;;;;;;86.10;31.23;;;4.50;99.90;;;;;;5076951;28;20429;-74
2022/01/26 12:11:47;;;;;;;93.60;32.67;;;4.50;99.90;;;;;;5076767;28;20479;-73
2022/01/26 12:14:19;;;;;;;74.87;31.27;;;4.50;99.90;;;;;;5076731;28;20443;-73
2022/01/26 12:16:50;;;;;;;78.63;32.00;;;4.60;99.90;;;;;;5076427;28;20978;-73
2022/01/26 12:19:28;;;;;;;86.97;33.07;;;4.60;99.90;;;;;;5076642;28;20483;-73
2022/01/26 12:33:45;;;;;;;78.83;33.00;;;4.60;99.90;;;;;;5076498;28;20460;-73
2022/01/26 12:36:24;;;;;;;89.90;32.27;;;4.50;99.90;;;;;;5076274;28;20464;-73
2022/01/26 12:38:59;;;;;;;84.57;33.30;;;4.60;99.90;;;;;;5076325;28;20519;-73
2022/01/26 12:41:32;;;;;;;79.60;31.83;;;4.60;99.90;;;;;;5076288;28;20866;-73
2022/01/26 12:44:00;;;;;;;86.30;33.03;;;4.60;99.90;;;;;;5076175;28;20425;-73
2022/01/26 12:46:29;;;;;;;93.33;34.83;;;4.60;99.90;;;;;;5076133;28;20826;-73
2022/01/26 12:48:59;;;;;;;82.60;33.93;;;4.60;99.90;;;;;;5076128;28;20437;-73
2022/01/26 12:51:27;;;;;;;84.53;32.40;;;4.60;99.90;;;;;;5075689;28;21016;-73
2022/01/26 12:53:56;;;;;;;100.03;35.63;;;4.60;99.90;;;;;;5075752;28;20999;-73
2022/01/26 12:56:26;;;;;;;80.77;32.97;;;4.50;99.90;;;;;;5075617;28;20974;-73
2022/01/26 12:59:00;;;;;;;94.83;35.97;;;4.50;99.90;;;;;;5075430;28;20498;-73
2022/01/26 13:01:26;;;;;;;94.67;33.33;;;4.60;99.90;;;;;;5075669;28;20494;-73
2022/01/26 13:03:59;;;;;;;90.07;37.47;;;4.50;99.90;;;;;;5075550;28;20460;-73
2022/01/26 13:06:27;;;;;;;95.97;33.57;;;4.50;99.90;;;;;;5075891;28;20522;-73
2022/01/26 13:08:55;;;;;;;89.00;34.50;;;4.60;99.90;;;;;;5075775;28;20449;-73
2022/01/26 13:11:24;;;;;;;84.57;34.93;;;4.70;99.90;;;;;;5075600;28;20492;-73
2022/01/26 13:13:51;;;;;;;89.37;35.93;;;4.60;99.90;;;;;;5075633;28;20448;-73
2022/01/26 13:16:22;;;;;;;87.97;36.43;;;4.60;99.90;;;;;;5075548;28;20469;-73
2022/01/26 13:19:15;;;;;;;85.83;34.03;;;4.70;99.90;;;;;;5075314;28;20483;-73
2022/01/26 13:24:50;;;;;;;84.63;34.80;;;4.70;99.90;;;;;;5074482;28;20435;-73
2022/01/26 13:27:28;;;;;;;74.77;33.27;;;4.80;99.90;;;;;;5075377;28;20464;-73
2022/01/26 13:30:06;;;;;;;81.70;33.77;;;4.80;99.90;;;;;;5075082;28;20903;-74
2022/01/26 13:35:38;;;;;;;80.73;33.67;;;4.70;99.90;;;;;;5075192;28;20486;-73
2022/01/26 13:38:17;;;;;;;89.63;33.93;;;4.70;99.90;;;;;;5074947;28;20918;-73
2022/01/26 13:40:53;;;;;;;79.47;31.50;;;4.70;99.90;;;;;;5075195;28;20435;-73
2022/01/26 13:46:50;;;;;;;82.20;32.60;;;4.70;99.90;;;;;;5075037;28;20443;-73
2022/01/26 13:49:22;;;;;;;86.80;34.80;;;4.70;99.90;;;;;;5074548;28;20803;-73
2022/01/26 13:52:02;;;;;;;89.83;35.00;;;4.70;99.90;;;;;;5074924;28;20464;-73
2022/01/26 13:54:50;;;;;;;80.10;34.33;;;4.60;99.90;;;;;;5074671;28;20443;-73
2022/01/26 13:57:42;;;;;;;79.50;36.30;;;4.60;99.90;;;;;;5075662;28;20548;-73
2022/01/26 14:00:11;;;;;;;87.27;34.70;;;4.50;99.90;;;;;;5075361;28;20483;-73
2022/01/26 14:02:38;;;;;;;90.07;34.23;;;4.50;99.90;;;;;;5074606;28;20506;-73
2022/01/26 14:05:06;;;;;;;99.67;38.10;;;4.50;99.90;;;;;;5074682;28;20436;-73
2022/01/26 14:07:33;;;;;;;87.70;35.17;;;4.50;99.90;;;;;;5074597;28;20452;-73
2022/01/26 14:10:01;;;;;;;80.57;34.10;;;4.50;99.90;;;;;;5074587;28;20444;-73
2022/01/26 14:12:32;;;;;;;86.00;33.33;;;4.50;99.90;;;;;;5074276;28;20476;-73
2022/01/26 14:15:00;;;;;;;74.50;34.70;;;4.60;99.90;;;;;;5074450;28;20491;-73
2022/01/26 14:17:38;;;;;;;82.27;34.10;;;4.60;99.90;;;;;;5074390;28;20506;-73
2022/01/26 14:20:16;;;;;;;82.97;33.33;;;4.60;99.90;;;;;;5075132;28;20436;-74
2022/01/26 14:23:02;;;;;;;90.53;34.00;;;4.60;99.90;;;;;;5075279;28;20936;-73
2022/01/26 14:25:32;;;;;;;84.37;32.73;;;4.60;99.90;;;;;;5074373;28;20471;-73
2022/01/26 14:28:03;;;;;;;94.50;34.87;;;4.60;99.90;;;;;;5075442;28;20441;-73